CheckWX is a tool to help pilots better visualize weather data.  It is not intended as a substitute for an official pre-flight weather briefing.

13:15:10 UTC

KRNO METAR
Reno / Tahoe International Airport
Reno, Nevada, USA
Current

20 mins ago

KRNO 131255Z 10SM SCT150 SCT220 02/M05 A3015 RMK AO2 SLP192 T00171050 $
Observed
Nov-13 @ 12:55 UTC
Visibility
10 SM
Flight Rules
VFR
Cloud Levels
  • Scattered at 15,000' AGL
  • Scattered at 22,000' AGL
Temperature
C / 36°F
Dewpoint
-5°C / 23°F
Humidity
60%
Altimeter
30.15" Hg
Pressure
1021.02 hPa
Previous

20 mins ago

KRNO 131255Z COR 00000KT 10SM SCT150 SCT220 02/M05 A3015 RMK AO2 SLP192 T00171050 $
Observed
Nov-13 @ 12:55 UTC
Visibility
10 SM
Flight Rules
VFR
Cloud Levels
  • Scattered at 15,000' AGL
  • Scattered at 22,000' AGL
Temperature
C / 36°F
Dewpoint
-5°C / 23°F
Humidity
60%
Altimeter
30.15" Hg
Pressure
1021.02 hPa
Previous

1 hour ago

KRNO 131155Z 00000KT 10SM SCT150 03/M04 A3015 RMK AO2 SLP182 T00331039 10117 20028 56007 $
Observed
Nov-13 @ 11:55 UTC
Visibility
10 SM
Flight Rules
VFR
Cloud Levels
  • Scattered at 15,000' AGL
Temperature
C / 37°F
Dewpoint
-4°C / 25°F
Humidity
60%
Altimeter
30.15" Hg
Pressure
1021.02 hPa